Terminal Aerodrome Forecast
Issued by NWS

Home | Current Version | Previous Version | Text Only | Print | Product List | Glossary On
Versions: 1 2 3 4 5 6 7 8 9 10 11 12 13 14 15
000
FTUS45 KREV 291844 AAA
TAFCXP
TAF AMD
KCXP 291844Z 2919/3018 27014G22KT P6SM SCT050 BKN110
     FM300400 32016G24KT 5SM SHRA SCT015 OVC025
     FM300800 33014KT P6SM VCSH BKN030 OVC040
     FM301600 04013KT P6SM OVC045=

USA.gov is the U.S. government's official web portal to all federal, state and local government web resources and services.